Weston, Louisiana
Current Conditions -  °F | °C
As of 11:15 AM on Sunday 21 Dec 2014 (Local Time) from KRSN Reporting Station
Clear Clear  
Wind Chill: 54°   Ceiling: Unl
Heat Index: 54°   Visibility: 10mi
Dew Point: 42°   Wind: 7mph
Humidity: 63%   Direction: 120°ESE
Pressure: 30.16"   Gusts: NA
Location:  32.2275°N, 92.6417°W
Report Text: KRSN 211715Z AUTO 12006KT 10SM CLR 12/05 A3016 RMK AO2 T01220054
Loading
Personal Weather Stations






























Interactive Weather Map New forecast layout! Learn more

10-Day Weather Forecast

Advertisements
Track Severe Weather on mobile